createdAt,value
2018-07-16T00:02:30.891Z,12.17
2018-07-16T00:05:02.963Z,11.63
2018-07-16T00:07:34.981Z,11.50
2018-07-16T00:10:06.997Z,12.00
2018-07-16T00:12:39.059Z,11.07
2018-07-16T00:15:11.074Z,12.23
2018-07-16T00:17:43.073Z,12.00
2018-07-16T00:20:15.064Z,11.67
2018-07-16T00:22:47.087Z,12.30
2018-07-16T00:25:19.056Z,12.30
2018-07-16T00:27:51.360Z,11.13
2018-07-16T00:30:23.356Z,13.43
2018-07-16T00:32:55.346Z,12.40
2018-07-16T00:35:27.335Z,11.70
2018-07-16T00:37:59.314Z,12.73
2018-07-16T00:40:31.310Z,13.07
2018-07-16T00:43:03.290Z,11.73
2018-07-16T00:45:35.241Z,13.67
2018-07-16T00:48:07.246Z,13.50
2018-07-16T00:50:39.240Z,14.70
2018-07-16T00:53:11.223Z,13.87
2018-07-16T00:55:43.251Z,13.00
2018-07-16T00:58:15.234Z,13.73
2018-07-16T01:00:47.206Z,12.90
2018-07-16T01:03:19.204Z,12.83
2018-07-16T01:05:51.198Z,12.40
2018-07-16T01:08:23.211Z,12.90
2018-07-16T01:10:55.175Z,14.00
2018-07-16T01:13:27.161Z,13.10
2018-07-16T01:15:59.123Z,15.57
2018-07-16T01:18:31.146Z,14.90
2018-07-16T01:21:03.182Z,14.40
2018-07-16T01:23:35.147Z,15.20
2018-07-16T01:26:07.148Z,14.47
2018-07-16T01:28:39.203Z,14.10
2018-07-16T01:31:11.251Z,13.77
2018-07-16T01:33:43.251Z,13.53
2018-07-16T01:36:15.236Z,13.73
2018-07-16T01:38:47.215Z,13.33
2018-07-16T01:41:19.190Z,13.13
2018-07-16T01:43:51.179Z,13.00
2018-07-16T01:46:23.200Z,12.83
2018-07-16T01:48:55.181Z,13.87
2018-07-16T01:51:27.152Z,11.83
2018-07-16T01:53:59.127Z,11.90
2018-07-16T01:56:31.104Z,13.10
2018-07-16T01:59:03.079Z,12.93
2018-07-16T02:01:35.074Z,12.40
2018-07-16T02:04:07.047Z,13.60
2018-07-16T02:06:39.037Z,13.77
2018-07-16T02:09:11.048Z,13.67
2018-07-16T02:11:43.054Z,14.10
2018-07-16T02:14:15.034Z,14.63
2018-07-16T02:16:47.015Z,13.70
2018-07-16T02:19:19.021Z,14.43
2018-07-16T02:21:51.043Z,14.70
2018-07-16T02:24:23.046Z,13.13
2018-07-16T02:26:55.095Z,14.50
2018-07-16T02:29:27.115Z,14.80
2018-07-16T02:31:59.090Z,12.33
2018-07-16T02:34:31.099Z,12.40
2018-07-16T02:37:03.107Z,12.57
2018-07-16T02:39:35.153Z,12.10
2018-07-16T02:42:07.419Z,12.73
2018-07-16T02:44:39.420Z,12.87
2018-07-16T02:47:11.515Z,12.17
2018-07-16T02:49:43.481Z,11.67
2018-07-16T02:52:15.489Z,12.23
2018-07-16T02:54:47.461Z,12.10
2018-07-16T02:57:19.435Z,12.60
2018-07-16T02:59:51.465Z,12.43
2018-07-16T03:02:23.444Z,12.40
2018-07-16T03:04:55.423Z,12.07
2018-07-16T03:07:27.459Z,12.73
2018-07-16T03:09:59.489Z,12.60
2018-07-16T03:12:31.502Z,13.00
2018-07-16T03:15:04.015Z,12.50
2018-07-16T03:17:36.035Z,11.60
2018-07-16T03:20:08.050Z,12.93
2018-07-16T03:22:40.056Z,12.50
2018-07-16T03:25:12.063Z,11.70
2018-07-16T03:27:44.055Z,14.00
2018-07-16T03:30:16.060Z,13.23
2018-07-16T03:32:48.098Z,13.50
2018-07-16T03:35:20.150Z,13.73
2018-07-16T03:37:52.138Z,12.33
2018-07-16T03:40:24.150Z,10.90
2018-07-16T03:42:56.119Z,11.97
2018-07-16T03:45:28.106Z,13.53
2018-07-16T03:48:00.114Z,14.17
2018-07-16T03:50:32.148Z,12.80
2018-07-16T03:53:04.154Z,13.40
2018-07-16T03:55:36.202Z,12.80
2018-07-16T03:58:08.187Z,13.57
2018-07-16T04:00:40.198Z,14.20
2018-07-16T04:03:12.208Z,13.70
2018-07-16T04:05:44.270Z,12.40
2018-07-16T04:08:16.251Z,13.27
2018-07-16T04:10:48.266Z,12.43
2018-07-16T04:13:20.225Z,13.73
2018-07-16T04:15:52.243Z,12.97
2018-07-16T04:18:24.254Z,12.80
2018-07-16T04:20:56.238Z,13.10
2018-07-16T04:23:28.193Z,12.10
2018-07-16T04:26:00.166Z,14.00
2018-07-16T04:28:32.196Z,12.10
2018-07-16T04:31:04.271Z,12.93
2018-07-16T04:33:36.187Z,12.60
2018-07-16T04:36:08.188Z,11.90
2018-07-16T04:38:40.171Z,12.97
2018-07-16T04:41:12.202Z,12.00
2018-07-16T04:43:44.166Z,11.60
2018-07-16T04:46:16.156Z,11.50
2018-07-16T04:48:48.223Z,10.60
2018-07-16T04:51:20.230Z,10.50
2018-07-16T04:53:52.210Z,9.40
2018-07-16T04:56:24.246Z,10.10
2018-07-16T04:58:56.229Z,8.60
2018-07-16T05:01:28.245Z,8.80
2018-07-16T05:04:00.255Z,8.30
2018-07-16T05:06:32.261Z,9.00
2018-07-16T05:09:05.254Z,9.90
2018-07-16T05:11:37.242Z,10.23
2018-07-16T05:14:09.257Z,10.53
2018-07-16T05:16:41.287Z,10.20
2018-07-16T05:19:13.291Z,10.57
2018-07-16T05:21:45.294Z,10.50
2018-07-16T05:24:17.319Z,9.83
2018-07-16T05:26:49.330Z,10.97
2018-07-16T05:29:21.306Z,9.73
2018-07-16T05:31:53.530Z,10.10
2018-07-16T05:34:25.644Z,11.27
2018-07-16T05:36:57.675Z,9.97
2018-07-16T05:39:29.656Z,9.57
2018-07-16T05:42:01.714Z,8.97
2018-07-16T05:44:33.712Z,9.07
2018-07-16T05:47:05.813Z,8.33
2018-07-16T05:49:37.789Z,7.43
2018-07-16T05:52:09.786Z,7.83
2018-07-16T05:54:41.775Z,8.53
2018-07-16T05:57:13.780Z,8.40
2018-07-16T05:59:45.766Z,8.40
2018-07-16T06:02:17.803Z,6.83
2018-07-16T06:04:49.790Z,6.80
2018-07-16T06:07:21.814Z,8.50
2018-07-16T06:09:53.820Z,7.83
2018-07-16T06:12:25.944Z,8.70
2018-07-16T06:14:57.946Z,6.93
2018-07-16T06:17:29.942Z,6.93
2018-07-16T06:20:01.923Z,7.93
2018-07-16T06:22:33.940Z,6.73
2018-07-16T06:25:06.431Z,7.90
2018-07-16T06:27:39.323Z,7.23
2018-07-16T06:30:11.307Z,6.90
2018-07-16T06:32:43.380Z,6.63
2018-07-16T06:35:15.362Z,7.40
2018-07-16T06:37:47.352Z,7.77
2018-07-16T06:40:19.453Z,7.37
2018-07-16T06:42:51.382Z,8.33
2018-07-16T06:45:23.375Z,8.10
2018-07-16T06:47:55.425Z,9.63
2018-07-16T06:50:27.483Z,9.13
2018-07-16T06:52:59.431Z,8.87
2018-07-16T06:55:31.418Z,8.67
2018-07-16T06:58:03.424Z,8.67
2018-07-16T07:00:35.402Z,9.10
2018-07-16T07:03:07.538Z,7.60
2018-07-16T07:05:39.544Z,8.10
2018-07-16T07:08:11.543Z,8.57
2018-07-16T07:10:43.791Z,8.27
2018-07-16T07:13:15.805Z,8.37
2018-07-16T07:15:47.795Z,9.00
2018-07-16T07:18:19.790Z,7.43
2018-07-16T07:20:51.826Z,7.60
2018-07-16T07:23:23.835Z,7.60
2018-07-16T07:25:55.819Z,8.40
2018-07-16T07:28:27.832Z,8.90
2018-07-16T07:30:59.871Z,7.97
2018-07-16T07:33:31.863Z,8.33
2018-07-16T07:36:03.988Z,9.10
2018-07-16T07:38:35.855Z,8.00
2018-07-16T07:41:07.870Z,7.73
2018-07-16T07:43:39.861Z,8.60
2018-07-16T07:46:11.846Z,7.87
2018-07-16T07:48:43.843Z,7.53
2018-07-16T07:51:15.819Z,6.57
2018-07-16T07:53:47.834Z,7.10
2018-07-16T07:56:20.030Z,7.10
2018-07-16T07:58:52.052Z,7.20
2018-07-16T08:01:24.041Z,6.57
2018-07-16T08:03:56.938Z,8.87
2018-07-16T08:06:28.968Z,7.03
2018-07-16T08:09:00.943Z,7.20
2018-07-16T08:11:32.926Z,7.30
2018-07-16T08:14:05.332Z,7.30
2018-07-16T08:16:37.350Z,7.23
2018-07-16T08:19:09.358Z,7.40
2018-07-16T08:21:41.356Z,7.23
2018-07-16T08:24:13.330Z,7.90
2018-07-16T08:26:45.327Z,6.80
2018-07-16T08:29:17.337Z,6.97
2018-07-16T08:31:49.351Z,7.03
2018-07-16T08:34:21.372Z,6.93
2018-07-16T08:36:53.375Z,6.87
2018-07-16T08:39:25.406Z,6.97
2018-07-16T08:41:57.398Z,7.10
2018-07-16T08:44:29.411Z,8.60
2018-07-16T08:47:01.436Z,7.50
2018-07-16T08:49:33.435Z,7.27
2018-07-16T08:52:05.531Z,7.90
2018-07-16T08:54:37.568Z,7.40
2018-07-16T08:57:09.552Z,9.87
2018-07-16T08:59:41.539Z,7.20
2018-07-16T09:02:13.565Z,7.50
2018-07-16T09:04:45.575Z,7.90
2018-07-16T09:07:17.729Z,6.67
2018-07-16T09:09:49.547Z,7.30
2018-07-16T09:12:21.536Z,7.47
2018-07-16T09:14:53.547Z,7.50
2018-07-16T09:17:25.520Z,6.27
2018-07-16T09:19:57.552Z,6.80
2018-07-16T09:22:29.563Z,6.63
2018-07-16T09:25:01.607Z,7.50
2018-07-16T09:27:33.613Z,7.60
2018-07-16T09:30:05.675Z,7.47
2018-07-16T09:32:37.783Z,6.97
2018-07-16T09:35:09.815Z,6.70
2018-07-16T09:37:41.835Z,7.20
2018-07-16T09:40:13.944Z,8.10
2018-07-16T09:42:45.975Z,6.80
2018-07-16T09:45:17.967Z,7.00
2018-07-16T09:47:49.935Z,6.53
2018-07-16T09:50:21.933Z,8.17
2018-07-16T09:52:53.957Z,5.97
2018-07-16T09:55:26.319Z,6.67
2018-07-16T09:57:58.700Z,13.67
2018-07-16T10:00:36.499Z,7.90
2018-07-16T10:03:08.487Z,6.47
2018-07-16T10:05:40.480Z,7.33
2018-07-16T10:08:12.479Z,7.50
2018-07-16T10:10:44.466Z,7.70
2018-07-16T10:13:16.439Z,7.73
2018-07-16T10:15:48.418Z,6.80
2018-07-16T10:18:20.435Z,8.23
2018-07-16T10:20:52.518Z,7.37
2018-07-16T10:23:24.501Z,6.30
2018-07-16T10:25:56.577Z,7.00
2018-07-16T10:28:28.499Z,8.03
2018-07-16T10:31:00.520Z,6.57
2018-07-16T10:33:32.563Z,6.53
2018-07-16T10:36:04.595Z,7.17
2018-07-16T10:38:36.591Z,6.57
2018-07-16T10:41:08.606Z,7.60
2018-07-16T10:43:40.614Z,6.93
2018-07-16T10:46:12.582Z,7.00
2018-07-16T10:48:44.538Z,6.93
2018-07-16T10:51:16.493Z,6.97
2018-07-16T10:53:48.462Z,7.10
2018-07-16T10:56:20.418Z,8.17
2018-07-16T10:58:52.358Z,7.07
2018-07-16T11:01:24.321Z,7.60
2018-07-16T11:03:56.296Z,7.93
2018-07-16T11:06:28.291Z,7.53
2018-07-16T11:09:00.309Z,6.27
2018-07-16T11:11:32.234Z,7.40
2018-07-16T11:14:04.178Z,6.70
2018-07-16T11:16:36.135Z,7.10
2018-07-16T11:19:08.051Z,6.97
2018-07-16T11:21:39.999Z,6.63
2018-07-16T11:24:11.929Z,6.93
2018-07-16T11:26:43.929Z,5.87
2018-07-16T11:29:15.883Z,5.20
2018-07-16T11:31:47.833Z,6.60
2018-07-16T11:34:20.766Z,6.60
2018-07-16T11:36:52.699Z,6.80
2018-07-16T11:39:24.644Z,6.17
2018-07-16T11:41:56.613Z,6.67
2018-07-16T11:44:28.573Z,6.37
2018-07-16T11:47:00.654Z,6.30
2018-07-16T11:49:32.602Z,5.77
2018-07-16T11:52:04.610Z,6.77
2018-07-16T11:54:36.507Z,7.40
2018-07-16T11:57:08.567Z,6.57
2018-07-16T11:59:40.566Z,6.73
2018-07-16T12:02:12.492Z,6.20
2018-07-16T12:04:44.437Z,7.00
2018-07-16T12:07:16.399Z,6.37
2018-07-16T12:09:48.350Z,7.30
2018-07-16T12:12:20.331Z,5.80
2018-07-16T12:14:52.287Z,6.50
2018-07-16T12:17:24.239Z,6.73
2018-07-16T12:19:56.222Z,5.80
2018-07-16T12:22:28.202Z,6.20
2018-07-16T12:25:00.385Z,5.63
2018-07-16T12:27:32.351Z,5.30
2018-07-16T12:30:04.323Z,4.43
2018-07-16T12:32:36.295Z,3.53
2018-07-16T12:35:08.307Z,3.63
2018-07-16T12:37:40.329Z,4.13
2018-07-16T12:40:12.278Z,3.70
2018-07-16T12:42:44.474Z,4.20
2018-07-16T12:45:16.423Z,4.10
2018-07-16T12:47:48.490Z,4.20
2018-07-16T12:50:22.438Z,5.27
2018-07-16T12:52:54.583Z,6.93
2018-07-16T12:55:26.775Z,10.27
2018-07-16T12:57:58.840Z,5.20
2018-07-16T13:00:32.077Z,4.33
2018-07-16T13:03:04.378Z,4.93
2018-07-16T13:05:36.322Z,5.20
2018-07-16T13:08:08.376Z,5.10
2018-07-16T13:10:40.559Z,8.17
2018-07-16T13:13:12.630Z,5.57
2018-07-16T13:15:44.654Z,6.97
2018-07-16T13:18:16.619Z,6.30
2018-07-16T13:20:48.675Z,6.70
2018-07-16T13:23:20.658Z,6.40
2018-07-16T13:25:52.600Z,6.40
2018-07-16T13:28:24.738Z,5.00
2018-07-16T13:30:56.845Z,4.30
2018-07-16T13:33:28.862Z,4.10
2018-07-16T13:36:00.882Z,4.20
2018-07-16T13:38:32.895Z,3.83
2018-07-16T13:41:04.879Z,4.17
2018-07-16T13:43:36.954Z,4.40
2018-07-16T13:46:08.919Z,4.30
2018-07-16T13:48:41.006Z,4.33
2018-07-16T13:51:13.126Z,4.20
2018-07-16T13:58:40.431Z,4.27
2018-07-16T14:01:12.483Z,4.37
2018-07-16T14:03:45.219Z,4.20
2018-07-16T14:06:17.343Z,4.23
2018-07-16T14:08:49.862Z,4.23
2018-07-16T14:11:22.285Z,3.43
2018-07-16T14:13:54.361Z,4.97
2018-07-16T14:16:26.469Z,4.10
2018-07-16T14:18:58.610Z,4.90
2018-07-16T14:21:30.757Z,4.77
2018-07-16T14:24:02.858Z,5.00
2018-07-16T14:26:34.990Z,4.50
2018-07-16T14:29:07.095Z,4.43
2018-07-16T14:31:39.661Z,4.57
2018-07-16T14:34:15.461Z,17.60
2018-07-16T14:36:47.820Z,4.83
2018-07-16T14:39:20.019Z,4.30
2018-07-16T14:41:52.240Z,4.13
2018-07-16T14:44:24.368Z,5.03
2018-07-16T14:46:56.513Z,3.93
2018-07-16T14:49:28.668Z,4.47
2018-07-16T14:52:01.363Z,4.80
2018-07-16T14:54:33.496Z,5.73
2018-07-16T14:57:06.907Z,3.80
2018-07-16T14:59:39.044Z,4.10
2018-07-16T15:02:11.211Z,4.00
2018-07-16T15:04:43.607Z,3.63
2018-07-16T15:07:15.855Z,3.53
2018-07-16T15:09:47.950Z,3.70
2018-07-16T15:12:20.093Z,6.47
2018-07-16T15:14:52.271Z,4.63
2018-07-16T15:17:24.525Z,3.50
2018-07-16T15:19:56.681Z,4.13
2018-07-16T15:22:28.908Z,8.10
2018-07-16T15:25:01.032Z,4.53
2018-07-16T15:27:33.136Z,4.60
2018-07-16T15:30:05.464Z,4.17
2018-07-16T15:32:37.705Z,4.97
2018-07-16T15:35:09.936Z,4.17
2018-07-16T15:37:41.993Z,4.20
2018-07-16T15:40:14.093Z,4.30
2018-07-16T15:42:46.290Z,4.00
2018-07-16T15:45:18.416Z,3.80
2018-07-16T15:47:50.487Z,4.37
2018-07-16T15:50:22.689Z,3.53
2018-07-16T15:52:55.125Z,3.37
2018-07-16T15:55:27.266Z,3.77
2018-07-16T15:57:59.676Z,4.43
2018-07-16T16:00:31.751Z,4.03
2018-07-16T16:03:03.836Z,4.00
2018-07-16T16:05:35.990Z,4.57
2018-07-16T16:08:08.166Z,4.00
2018-07-16T16:10:40.255Z,3.87
2018-07-16T16:13:12.414Z,4.03
2018-07-16T16:15:44.493Z,4.83
2018-07-16T16:18:16.597Z,5.23
2018-07-16T16:20:48.712Z,5.03
2018-07-16T16:23:20.954Z,5.37
2018-07-16T16:25:53.140Z,4.50
2018-07-16T16:28:25.525Z,3.13
2018-07-16T16:30:57.682Z,4.63
2018-07-16T16:33:29.815Z,3.90
2018-07-16T16:36:01.991Z,4.00
2018-07-16T16:38:34.260Z,3.23
2018-07-16T16:41:06.694Z,3.10
2018-07-16T16:43:39.162Z,3.30
2018-07-16T16:46:11.223Z,4.73
2018-07-16T16:48:43.366Z,3.20
2018-07-16T16:51:15.428Z,3.60
2018-07-16T16:53:47.554Z,4.70
2018-07-16T16:56:19.697Z,3.73
2018-07-16T16:58:52.062Z,3.23
2018-07-16T17:01:24.445Z,3.00
2018-07-16T17:03:56.593Z,3.80
2018-07-16T17:06:28.641Z,3.90
2018-07-16T17:09:00.737Z,3.03
2018-07-16T17:11:33.040Z,3.27
2018-07-16T17:14:05.233Z,3.27
2018-07-16T17:16:37.331Z,3.00
2018-07-16T17:19:09.460Z,3.80
2018-07-16T17:21:41.567Z,3.70
2018-07-16T17:24:15.276Z,2.90
2018-07-16T17:26:47.412Z,3.90
2018-07-16T17:29:19.551Z,3.70
2018-07-16T17:31:51.723Z,3.20
2018-07-16T17:34:23.788Z,3.47
2018-07-16T17:36:55.877Z,2.93
2018-07-16T17:39:28.310Z,3.33
2018-07-16T17:42:00.598Z,3.27
2018-07-16T17:44:32.957Z,3.83
2018-07-16T17:47:05.168Z,3.53
2018-07-16T17:49:37.308Z,3.90
2018-07-16T17:52:09.361Z,3.70
2018-07-16T17:54:41.447Z,5.30
2018-07-16T17:57:13.535Z,4.30
2018-07-16T17:59:45.643Z,3.90
2018-07-16T18:02:17.826Z,3.47
2018-07-16T18:04:49.941Z,4.07
2018-07-16T18:07:21.971Z,4.60
2018-07-16T18:09:53.996Z,30.00
2018-07-16T18:12:26.114Z,15.77
2018-07-16T18:14:58.199Z,3.50
2018-07-16T18:17:30.289Z,4.20
2018-07-16T18:20:02.383Z,4.30
2018-07-16T18:22:34.438Z,3.73
2018-07-16T18:25:06.530Z,4.10
2018-07-16T18:27:38.580Z,4.30
2018-07-16T18:30:10.683Z,3.70
2018-07-16T18:32:42.757Z,4.23
2018-07-16T18:35:14.836Z,4.07
2018-07-16T18:37:46.905Z,16.40
2018-07-16T18:40:18.922Z,8.27
2018-07-16T18:42:51.256Z,4.17
2018-07-16T18:45:23.333Z,4.07
2018-07-16T18:47:55.372Z,5.83
2018-07-16T18:50:27.428Z,4.30
2018-07-16T18:52:59.883Z,3.63
2018-07-16T18:55:32.093Z,3.57
2018-07-16T18:58:04.214Z,3.83
2018-07-16T19:00:36.269Z,3.40
2018-07-16T19:03:08.312Z,4.10
2018-07-16T19:05:40.407Z,3.97
2018-07-16T19:08:12.471Z,3.73
2018-07-16T19:10:44.575Z,3.57
2018-07-16T19:13:16.616Z,3.57
2018-07-16T19:15:48.622Z,4.13
2018-07-16T19:18:20.769Z,5.20
2018-07-16T19:20:53.032Z,4.50
2018-07-16T19:23:25.049Z,4.00
2018-07-16T19:25:57.087Z,4.47
2018-07-16T19:28:29.229Z,4.60
2018-07-16T19:31:01.177Z,4.80
2018-07-16T19:33:33.214Z,4.77
2018-07-16T19:36:05.300Z,4.63
2018-07-16T19:38:37.566Z,5.20
2018-07-16T19:41:09.475Z,4.97
2018-07-16T19:43:41.639Z,4.97
2018-07-16T19:46:13.683Z,4.67
2018-07-16T19:48:45.861Z,4.50
2018-07-16T19:51:17.927Z,5.80
2018-07-16T19:53:49.993Z,4.87
2018-07-16T19:56:22.098Z,4.87
2018-07-16T19:58:54.221Z,5.70
2018-07-16T20:01:26.267Z,5.10
2018-07-16T20:04:00.415Z,6.00
2018-07-16T20:06:33.378Z,5.40
2018-07-16T20:09:05.826Z,5.27
2018-07-16T20:11:40.007Z,5.57
2018-07-16T20:14:12.004Z,6.20
2018-07-16T20:16:44.242Z,7.77
2018-07-16T20:19:16.460Z,5.90
2018-07-16T20:21:48.528Z,6.20
2018-07-16T20:24:20.941Z,5.50
2018-07-16T20:26:53.377Z,6.13
2018-07-16T20:29:25.383Z,6.63
2018-07-16T20:31:57.652Z,6.00
2018-07-16T20:34:30.058Z,6.30
2018-07-16T20:37:02.161Z,6.67
2018-07-16T20:39:34.226Z,5.73
2018-07-16T20:42:06.975Z,5.70
2018-07-16T20:44:39.117Z,7.03
2018-07-16T20:47:11.219Z,7.70
2018-07-16T20:49:43.377Z,6.97
2018-07-16T20:52:15.616Z,7.20
2018-07-16T20:54:48.226Z,7.13
2018-07-16T20:57:20.433Z,7.13
2018-07-16T20:59:53.604Z,6.40
2018-07-16T21:02:25.667Z,6.97
2018-07-16T21:04:57.936Z,8.07
2018-07-16T21:07:30.039Z,7.13
2018-07-16T21:10:02.251Z,8.10
2018-07-16T21:12:34.350Z,8.23
2018-07-16T21:15:06.502Z,7.93
2018-07-16T21:17:38.979Z,8.20
2018-07-16T21:20:12.275Z,7.50
2018-07-16T21:22:44.372Z,8.00
2018-07-16T21:25:16.529Z,8.13
2018-07-16T21:27:48.604Z,9.20
2018-07-16T21:30:20.638Z,7.77
2018-07-16T21:32:52.808Z,8.53
2018-07-16T21:35:25.022Z,9.63
2018-07-16T21:37:57.236Z,8.80
2018-07-16T21:40:29.434Z,8.63
2018-07-16T21:43:01.534Z,8.17
2018-07-16T21:45:33.621Z,9.00
2018-07-16T21:48:05.734Z,9.40
2018-07-16T21:50:37.777Z,10.63
2018-07-16T21:53:09.867Z,10.17
2018-07-16T21:55:41.965Z,10.43
2018-07-16T21:58:14.110Z,10.53
2018-07-16T22:00:47.817Z,9.70
2018-07-16T22:03:19.784Z,10.23
2018-07-16T22:05:51.877Z,9.67
2018-07-16T22:08:25.916Z,9.23
2018-07-16T22:10:58.019Z,9.27
2018-07-16T22:13:30.100Z,9.57
2018-07-16T22:16:02.329Z,9.80
2018-07-16T22:18:34.417Z,9.37
2018-07-16T22:21:06.522Z,9.10
2018-07-16T22:23:38.565Z,9.70
2018-07-16T22:26:10.631Z,9.97
2018-07-16T22:28:42.685Z,11.60
2018-07-16T22:31:14.777Z,11.53
2018-07-16T22:33:46.842Z,12.83
2018-07-16T22:36:18.908Z,11.50
2018-07-16T22:38:50.971Z,12.07
2018-07-16T22:41:23.037Z,12.47
2018-07-16T22:43:55.087Z,11.67
2018-07-16T22:46:27.132Z,12.73
2018-07-16T22:48:59.280Z,13.50
2018-07-16T22:51:31.358Z,12.63
2018-07-16T22:54:03.439Z,14.00
2018-07-16T22:56:35.526Z,11.97
2018-07-16T22:59:07.612Z,10.57
2018-07-16T23:01:39.688Z,9.70
2018-07-16T23:04:11.754Z,10.17
2018-07-16T23:06:43.828Z,9.03
2018-07-16T23:09:28.887Z,9.67
2018-07-16T23:12:01.399Z,7.47
2018-07-16T23:14:33.818Z,8.30
2018-07-16T23:17:06.305Z,9.00
2018-07-16T23:25:29.908Z,8.00
2018-07-16T23:28:02.076Z,8.20
2018-07-16T23:30:34.206Z,8.83
2018-07-16T23:33:06.264Z,8.10
2018-07-16T23:35:38.465Z,8.63
2018-07-16T23:38:10.633Z,8.53
2018-07-16T23:40:42.721Z,7.60
2018-07-16T23:43:14.832Z,6.63
2018-07-16T23:45:46.924Z,8.07
2018-07-16T23:48:18.993Z,7.60
2018-07-16T23:50:51.069Z,7.00
2018-07-16T23:53:23.197Z,6.83
2018-07-16T23:55:55.451Z,7.67
2018-07-16T23:58:27.417Z,6.93
